sensor_id;sensor_type;location;lat;lon;timestamp;temperature;humidity
17170;DHT22;8700;48.222;16.342;2022-10-19T00:02:59;17.70;99.90
17170;DHT22;8700;48.222;16.342;2022-10-19T00:06:21;17.70;99.90
17170;DHT22;8700;48.222;16.342;2022-10-19T00:09:44;17.80;99.90
17170;DHT22;8700;48.222;16.342;2022-10-19T00:13:05;17.70;99.90
17170;DHT22;8700;48.222;16.342;2022-10-19T00:16:30;17.80;99.90
17170;DHT22;8700;48.222;16.342;2022-10-19T00:19:53;17.60;99.90
17170;DHT22;8700;48.222;16.342;2022-10-19T00:23:15;17.60;99.90
17170;DHT22;8700;48.222;16.342;2022-10-19T00:26:37;17.60;99.90
17170;DHT22;8700;48.222;16.342;2022-10-19T00:29:59;17.50;99.90
17170;DHT22;8700;48.222;16.342;2022-10-19T00:33:21;17.50;99.90
17170;DHT22;8700;48.222;16.342;2022-10-19T00:36:44;17.50;99.90
17170;DHT22;8700;48.222;16.342;2022-10-19T00:40:06;17.50;99.90
17170;DHT22;8700;48.222;16.342;2022-10-19T00:43:30;17.50;99.90
17170;DHT22;8700;48.222;16.342;2022-10-19T00:46:51;17.50;99.90
17170;DHT22;8700;48.222;16.342;2022-10-19T00:50:13;17.50;99.90
17170;DHT22;8700;48.222;16.342;2022-10-19T00:53:37;17.40;99.90
17170;DHT22;8700;48.222;16.342;2022-10-19T00:56:59;17.40;99.90
17170;DHT22;8700;48.222;16.342;2022-10-19T01:00:20;17.40;99.90
17170;DHT22;8700;48.222;16.342;2022-10-19T01:03:42;17.30;99.90
17170;DHT22;8700;48.222;16.342;2022-10-19T01:07:04;17.30;99.90
17170;DHT22;8700;48.222;16.342;2022-10-19T01:10:31;17.40;99.90
17170;DHT22;8700;48.222;16.342;2022-10-19T01:14:07;17.40;99.90
17170;DHT22;8700;48.222;16.342;2022-10-19T01:17:40;17.30;99.90
17170;DHT22;8700;48.222;16.342;2022-10-19T01:21:20;17.30;99.90
17170;DHT22;8700;48.222;16.342;2022-10-19T01:24:51;17.10;99.90
17170;DHT22;8700;48.222;16.342;2022-10-19T01:28:29;17.20;99.90
17170;DHT22;8700;48.222;16.342;2022-10-19T01:32:00;17.10;99.90
17170;DHT22;8700;48.222;16.342;2022-10-19T01:35:27;17.20;99.90
17170;DHT22;8700;48.222;16.342;2022-10-19T01:38:59;17.10;99.90
17170;DHT22;8700;48.222;16.342;2022-10-19T01:42:27;17.10;99.90
17170;DHT22;8700;48.222;16.342;2022-10-19T01:45:52;17.00;99.90
17170;DHT22;8700;48.222;16.342;2022-10-19T01:49:19;16.90;99.90
17170;DHT22;8700;48.222;16.342;2022-10-19T01:52:43;17.00;99.90
17170;DHT22;8700;48.222;16.342;2022-10-19T01:56:05;17.00;99.90
17170;DHT22;8700;48.222;16.342;2022-10-19T01:59:28;16.90;99.90
17170;DHT22;8700;48.222;16.342;2022-10-19T02:02:52;17.00;99.90
17170;DHT22;8700;48.222;16.342;2022-10-19T02:06:15;17.10;99.90
17170;DHT22;8700;48.222;16.342;2022-10-19T02:09:37;17.00;99.90
17170;DHT22;8700;48.222;16.342;2022-10-19T02:13:00;16.90;99.90
17170;DHT22;8700;48.222;16.342;2022-10-19T02:16:26;16.80;99.90
17170;DHT22;8700;48.222;16.342;2022-10-19T02:19:50;16.80;99.90
17170;DHT22;8700;48.222;16.342;2022-10-19T02:23:16;16.80;99.90
17170;DHT22;8700;48.222;16.342;2022-10-19T02:26:39;16.80;99.90
17170;DHT22;8700;48.222;16.342;2022-10-19T02:30:01;16.70;99.90
17170;DHT22;8700;48.222;16.342;2022-10-19T02:33:24;16.70;99.90
17170;DHT22;8700;48.222;16.342;2022-10-19T02:36:46;16.60;99.90
17170;DHT22;8700;48.222;16.342;2022-10-19T02:40:11;16.50;99.90
17170;DHT22;8700;48.222;16.342;2022-10-19T02:43:36;16.50;99.90
17170;DHT22;8700;48.222;16.342;2022-10-19T02:47:03;16.40;99.90
17170;DHT22;8700;48.222;16.342;2022-10-19T02:50:30;16.30;99.90
17170;DHT22;8700;48.222;16.342;2022-10-19T02:53:51;16.30;99.90
17170;DHT22;8700;48.222;16.342;2022-10-19T02:57:16;16.20;99.90
17170;DHT22;8700;48.222;16.342;2022-10-19T03:00:38;16.20;99.90
17170;DHT22;8700;48.222;16.342;2022-10-19T03:03:59;16.20;99.90
17170;DHT22;8700;48.222;16.342;2022-10-19T03:07:21;16.20;99.90
17170;DHT22;8700;48.222;16.342;2022-10-19T03:10:42;16.10;99.90
17170;DHT22;8700;48.222;16.342;2022-10-19T03:14:05;15.90;99.90
17170;DHT22;8700;48.222;16.342;2022-10-19T03:17:27;15.90;99.90
17170;DHT22;8700;48.222;16.342;2022-10-19T03:20:48;15.80;99.90
17170;DHT22;8700;48.222;16.342;2022-10-19T03:24:09;15.80;99.90
17170;DHT22;8700;48.222;16.342;2022-10-19T03:27:31;16.00;99.90
17170;DHT22;8700;48.222;16.342;2022-10-19T03:30:54;16.00;99.90
17170;DHT22;8700;48.222;16.342;2022-10-19T03:34:15;15.90;99.90
17170;DHT22;8700;48.222;16.342;2022-10-19T03:37:36;15.90;99.90
17170;DHT22;8700;48.222;16.342;2022-10-19T03:40:58;16.00;99.90
17170;DHT22;8700;48.222;16.342;2022-10-19T03:44:19;16.00;99.90
17170;DHT22;8700;48.222;16.342;2022-10-19T03:47:42;15.90;99.90
17170;DHT22;8700;48.222;16.342;2022-10-19T03:51:10;15.90;99.90
17170;DHT22;8700;48.222;16.342;2022-10-19T03:54:32;15.90;99.90
17170;DHT22;8700;48.222;16.342;2022-10-19T03:57:53;16.00;99.90
17170;DHT22;8700;48.222;16.342;2022-10-19T04:01:16;16.00;99.90
17170;DHT22;8700;48.222;16.342;2022-10-19T04:04:39;16.00;99.90
17170;DHT22;8700;48.222;16.342;2022-10-19T04:08:01;16.00;99.90
17170;DHT22;8700;48.222;16.342;2022-10-19T04:11:24;16.10;99.90
17170;DHT22;8700;48.222;16.342;2022-10-19T04:14:46;16.00;99.90
17170;DHT22;8700;48.222;16.342;2022-10-19T04:18:08;15.90;99.90
17170;DHT22;8700;48.222;16.342;2022-10-19T04:21:32;15.80;99.90
17170;DHT22;8700;48.222;16.342;2022-10-19T04:24:54;15.80;99.90
17170;DHT22;8700;48.222;16.342;2022-10-19T04:28:15;15.80;99.90
17170;DHT22;8700;48.222;16.342;2022-10-19T04:31:37;15.90;99.90
17170;DHT22;8700;48.222;16.342;2022-10-19T04:34:59;15.90;99.90
17170;DHT22;8700;48.222;16.342;2022-10-19T04:38:21;15.80;99.90
17170;DHT22;8700;48.222;16.342;2022-10-19T04:41:44;15.60;99.90
17170;DHT22;8700;48.222;16.342;2022-10-19T04:45:06;15.80;99.90
17170;DHT22;8700;48.222;16.342;2022-10-19T04:48:28;15.80;99.90
17170;DHT22;8700;48.222;16.342;2022-10-19T04:51:49;15.80;99.90
17170;DHT22;8700;48.222;16.342;2022-10-19T04:55:12;15.70;99.90
17170;DHT22;8700;48.222;16.342;2022-10-19T04:58:33;15.50;99.90
17170;DHT22;8700;48.222;16.342;2022-10-19T05:01:55;15.40;99.90
17170;DHT22;8700;48.222;16.342;2022-10-19T05:05:16;15.50;99.90
17170;DHT22;8700;48.222;16.342;2022-10-19T05:08:38;15.50;99.90
17170;DHT22;8700;48.222;16.342;2022-10-19T05:12:00;15.50;99.90
17170;DHT22;8700;48.222;16.342;2022-10-19T05:15:23;15.50;99.90
17170;DHT22;8700;48.222;16.342;2022-10-19T05:18:47;15.50;99.90
17170;DHT22;8700;48.222;16.342;2022-10-19T05:22:09;15.50;99.90
17170;DHT22;8700;48.222;16.342;2022-10-19T05:25:30;15.50;99.90
17170;DHT22;8700;48.222;16.342;2022-10-19T05:28:55;15.50;99.90
17170;DHT22;8700;48.222;16.342;2022-10-19T05:32:19;15.50;99.90
17170;DHT22;8700;48.222;16.342;2022-10-19T05:35:40;15.50;99.90
17170;DHT22;8700;48.222;16.342;2022-10-19T05:39:03;15.50;99.90
17170;DHT22;8700;48.222;16.342;2022-10-19T05:42:25;15.30;99.90
17170;DHT22;8700;48.222;16.342;2022-10-19T05:45:48;15.20;99.90
17170;DHT22;8700;48.222;16.342;2022-10-19T05:49:10;15.10;99.90
17170;DHT22;8700;48.222;16.342;2022-10-19T05:52:31;15.10;99.90
17170;DHT22;8700;48.222;16.342;2022-10-19T05:55:54;15.10;99.90
17170;DHT22;8700;48.222;16.342;2022-10-19T05:59:17;15.10;99.90
17170;DHT22;8700;48.222;16.342;2022-10-19T06:02:40;15.20;99.90
17170;DHT22;8700;48.222;16.342;2022-10-19T06:06:02;15.20;99.90
17170;DHT22;8700;48.222;16.342;2022-10-19T06:09:23;15.20;99.90
17170;DHT22;8700;48.222;16.342;2022-10-19T06:12:45;15.20;99.90
17170;DHT22;8700;48.222;16.342;2022-10-19T06:16:07;15.30;99.90
17170;DHT22;8700;48.222;16.342;2022-10-19T06:19:30;15.40;99.90
17170;DHT22;8700;48.222;16.342;2022-10-19T06:22:52;15.50;99.90
17170;DHT22;8700;48.222;16.342;2022-10-19T06:26:13;15.70;99.90
17170;DHT22;8700;48.222;16.342;2022-10-19T06:29:35;15.80;99.90
17170;DHT22;8700;48.222;16.342;2022-10-19T06:32:58;15.90;99.90
17170;DHT22;8700;48.222;16.342;2022-10-19T06:36:22;15.90;99.90
17170;DHT22;8700;48.222;16.342;2022-10-19T06:39:43;15.90;99.90
17170;DHT22;8700;48.222;16.342;2022-10-19T06:43:05;15.90;99.90
17170;DHT22;8700;48.222;16.342;2022-10-19T06:46:26;15.90;99.90
17170;DHT22;8700;48.222;16.342;2022-10-19T06:49:48;16.10;99.90
17170;DHT22;8700;48.222;16.342;2022-10-19T06:53:11;16.10;99.90
17170;DHT22;8700;48.222;16.342;2022-10-19T06:56:32;16.20;99.90
17170;DHT22;8700;48.222;16.342;2022-10-19T06:59:53;16.20;99.90
17170;DHT22;8700;48.222;16.342;2022-10-19T07:03:15;16.30;99.90
17170;DHT22;8700;48.222;16.342;2022-10-19T07:06:36;16.40;99.90
17170;DHT22;8700;48.222;16.342;2022-10-19T07:09:59;16.40;99.90
17170;DHT22;8700;48.222;16.342;2022-10-19T07:13:20;16.50;99.90
17170;DHT22;8700;48.222;16.342;2022-10-19T07:16:42;16.40;99.90
17170;DHT22;8700;48.222;16.342;2022-10-19T07:20:04;16.40;99.90
17170;DHT22;8700;48.222;16.342;2022-10-19T07:23:27;16.50;99.90
17170;DHT22;8700;48.222;16.342;2022-10-19T07:26:51;16.50;99.90
17170;DHT22;8700;48.222;16.342;2022-10-19T07:30:12;16.50;99.90
17170;DHT22;8700;48.222;16.342;2022-10-19T07:33:33;16.70;99.90
17170;DHT22;8700;48.222;16.342;2022-10-19T07:36:55;16.70;99.90
17170;DHT22;8700;48.222;16.342;2022-10-19T07:40:16;16.70;99.90
17170;DHT22;8700;48.222;16.342;2022-10-19T07:43:40;16.80;99.90
17170;DHT22;8700;48.222;16.342;2022-10-19T07:47:02;17.10;99.90
17170;DHT22;8700;48.222;16.342;2022-10-19T07:50:24;17.40;99.90
17170;DHT22;8700;48.222;16.342;2022-10-19T07:53:46;17.80;99.90
17170;DHT22;8700;48.222;16.342;2022-10-19T07:57:10;17.80;99.90
17170;DHT22;8700;48.222;16.342;2022-10-19T08:00:33;17.80;99.90
17170;DHT22;8700;48.222;16.342;2022-10-19T08:03:56;18.30;99.90
17170;DHT22;8700;48.222;16.342;2022-10-19T08:07:18;18.30;99.90
17170;DHT22;8700;48.222;16.342;2022-10-19T08:10:52;18.40;99.90
17170;DHT22;8700;48.222;16.342;2022-10-19T08:14:14;18.30;99.90
17170;DHT22;8700;48.222;16.342;2022-10-19T08:17:46;18.50;99.90
17170;DHT22;8700;48.222;16.342;2022-10-19T08:21:07;18.80;99.90
17170;DHT22;8700;48.222;16.342;2022-10-19T08:24:29;18.80;99.90
17170;DHT22;8700;48.222;16.342;2022-10-19T08:27:51;19.10;99.90
17170;DHT22;8700;48.222;16.342;2022-10-19T08:31:14;19.20;99.90
17170;DHT22;8700;48.222;16.342;2022-10-19T08:34:38;19.30;99.90
17170;DHT22;8700;48.222;16.342;2022-10-19T08:38:00;19.20;99.90
17170;DHT22;8700;48.222;16.342;2022-10-19T08:41:24;19.10;99.90
17170;DHT22;8700;48.222;16.342;2022-10-19T08:48:39;19.50;99.90
17170;DHT22;8700;48.222;16.342;2022-10-19T08:52:06;19.60;99.90
17170;DHT22;8700;48.222;16.342;2022-10-19T08:55:38;19.60;99.90
17170;DHT22;8700;48.222;16.342;2022-10-19T08:59:08;19.60;99.90
17170;DHT22;8700;48.222;16.342;2022-10-19T09:02:46;19.60;99.90
17170;DHT22;8700;48.222;16.342;2022-10-19T09:06:17;19.60;99.90
17170;DHT22;8700;48.222;16.342;2022-10-19T09:09:48;19.50;99.90
17170;DHT22;8700;48.222;16.342;2022-10-19T09:13:16;19.60;99.90
17170;DHT22;8700;48.222;16.342;2022-10-19T09:16:40;19.60;99.90
17170;DHT22;8700;48.222;16.342;2022-10-19T09:20:13;19.70;99.90
17170;DHT22;8700;48.222;16.342;2022-10-19T09:23:38;19.70;99.90
17170;DHT22;8700;48.222;16.342;2022-10-19T09:27:01;19.70;99.90
17170;DHT22;8700;48.222;16.342;2022-10-19T09:30:23;19.80;99.90
17170;DHT22;8700;48.222;16.342;2022-10-19T09:33:49;19.80;99.90
17170;DHT22;8700;48.222;16.342;2022-10-19T09:37:12;19.80;99.90
17170;DHT22;8700;48.222;16.342;2022-10-19T09:40:35;19.90;99.90
17170;DHT22;8700;48.222;16.342;2022-10-19T09:43:58;20.40;99.90
17170;DHT22;8700;48.222;16.342;2022-10-19T09:47:31;21.70;99.90
17170;DHT22;8700;48.222;16.342;2022-10-19T09:50:55;23.40;99.90
17170;DHT22;8700;48.222;16.342;2022-10-19T09:54:32;24.10;99.90
17170;DHT22;8700;48.222;16.342;2022-10-19T09:58:00;23.60;99.90
17170;DHT22;8700;48.222;16.342;2022-10-19T10:01:32;23.50;99.90
17170;DHT22;8700;48.222;16.342;2022-10-19T10:04:55;24.30;99.90
17170;DHT22;8700;48.222;16.342;2022-10-19T10:08:19;23.10;99.90
17170;DHT22;8700;48.222;16.342;2022-10-19T10:11:45;23.30;99.90
17170;DHT22;8700;48.222;16.342;2022-10-19T10:15:17;23.80;99.90
17170;DHT22;8700;48.222;16.342;2022-10-19T10:18:50;23.80;99.90
17170;DHT22;8700;48.222;16.342;2022-10-19T10:22:24;24.20;99.90
17170;DHT22;8700;48.222;16.342;2022-10-19T10:25:48;24.90;99.90
17170;DHT22;8700;48.222;16.342;2022-10-19T10:29:17;25.20;99.90
17170;DHT22;8700;48.222;16.342;2022-10-19T10:32:44;25.70;98.60
17170;DHT22;8700;48.222;16.342;2022-10-19T10:36:10;25.50;97.90
17170;DHT22;8700;48.222;16.342;2022-10-19T10:39:34;24.60;98.90
17170;DHT22;8700;48.222;16.342;2022-10-19T10:43:03;24.70;99.00
17170;DHT22;8700;48.222;16.342;2022-10-19T10:46:27;24.30;99.20
17170;DHT22;8700;48.222;16.342;2022-10-19T10:49:54;24.70;99.50
17170;DHT22;8700;48.222;16.342;2022-10-19T10:53:38;24.60;98.80
17170;DHT22;8700;48.222;16.342;2022-10-19T10:57:10;23.60;99.90
17170;DHT22;8700;48.222;16.342;2022-10-19T11:00:33;23.20;99.90
17170;DHT22;8700;48.222;16.342;2022-10-19T11:04:02;22.80;99.90
17170;DHT22;8700;48.222;16.342;2022-10-19T11:07:26;22.20;99.90
17170;DHT22;8700;48.222;16.342;2022-10-19T11:10:56;21.80;99.90
17170;DHT22;8700;48.222;16.342;2022-10-19T11:14:29;21.60;99.90
17170;DHT22;8700;48.222;16.342;2022-10-19T11:18:02;21.70;99.90
17170;DHT22;8700;48.222;16.342;2022-10-19T11:21:30;22.50;99.90
17170;DHT22;8700;48.222;16.342;2022-10-19T11:25:18;22.60;99.90
17170;DHT22;8700;48.222;16.342;2022-10-19T11:28:58;22.10;99.90
17170;DHT22;8700;48.222;16.342;2022-10-19T11:32:29;21.60;99.90
17170;DHT22;8700;48.222;16.342;2022-10-19T11:35:57;21.50;99.90
17170;DHT22;8700;48.222;16.342;2022-10-19T11:39:34;21.90;99.90
17170;DHT22;8700;48.222;16.342;2022-10-19T11:43:03;22.10;99.90
17170;DHT22;8700;48.222;16.342;2022-10-19T11:46:36;23.40;99.90
17170;DHT22;8700;48.222;16.342;2022-10-19T11:50:08;23.90;99.90
17170;DHT22;8700;48.222;16.342;2022-10-19T11:53:42;24.00;99.90
17170;DHT22;8700;48.222;16.342;2022-10-19T11:57:12;23.40;99.90
17170;DHT22;8700;48.222;16.342;2022-10-19T12:00:40;23.00;99.90
17170;DHT22;8700;48.222;16.342;2022-10-19T12:04:49;22.80;99.90
17170;DHT22;8700;48.222;16.342;2022-10-19T12:08:23;22.50;99.90
17170;DHT22;8700;48.222;16.342;2022-10-19T12:15:37;22.00;99.90
17170;DHT22;8700;48.222;16.342;2022-10-19T12:19:03;21.80;99.80
17170;DHT22;8700;48.222;16.342;2022-10-19T12:22:28;21.50;99.70
17170;DHT22;8700;48.222;16.342;2022-10-19T12:25:51;21.30;99.90
17170;DHT22;8700;48.222;16.342;2022-10-19T12:29:16;21.20;99.90
17170;DHT22;8700;48.222;16.342;2022-10-19T12:32:46;21.20;99.90
17170;DHT22;8700;48.222;16.342;2022-10-19T12:36:21;21.30;99.90
17170;DHT22;8700;48.222;16.342;2022-10-19T12:39:50;21.50;99.90
17170;DHT22;8700;48.222;16.342;2022-10-19T12:43:18;21.40;99.90
17170;DHT22;8700;48.222;16.342;2022-10-19T12:46:44;21.40;99.90
17170;DHT22;8700;48.222;16.342;2022-10-19T12:50:07;21.50;99.90
17170;DHT22;8700;48.222;16.342;2022-10-19T12:53:30;21.40;99.90
17170;DHT22;8700;48.222;16.342;2022-10-19T12:56:57;21.10;99.90
17170;DHT22;8700;48.222;16.342;2022-10-19T13:00:22;20.90;99.90
17170;DHT22;8700;48.222;16.342;2022-10-19T13:03:44;21.00;99.90
17170;DHT22;8700;48.222;16.342;2022-10-19T13:07:07;21.00;99.90
17170;DHT22;8700;48.222;16.342;2022-10-19T13:10:31;21.20;99.90
17170;DHT22;8700;48.222;16.342;2022-10-19T13:14:04;21.30;99.90
17170;DHT22;8700;48.222;16.342;2022-10-19T13:17:40;21.30;99.90
17170;DHT22;8700;48.222;16.342;2022-10-19T13:21:06;21.30;99.90
17170;DHT22;8700;48.222;16.342;2022-10-19T13:24:31;21.10;99.90
17170;DHT22;8700;48.222;16.342;2022-10-19T13:27:59;21.20;99.90
17170;DHT22;8700;48.222;16.342;2022-10-19T13:31:25;21.20;99.90
17170;DHT22;8700;48.222;16.342;2022-10-19T13:34:46;21.00;99.90
17170;DHT22;8700;48.222;16.342;2022-10-19T13:41:51;21.00;99.90
17170;DHT22;8700;48.222;16.342;2022-10-19T13:45:20;21.10;99.90
17170;DHT22;8700;48.222;16.342;2022-10-19T13:49:05;21.00;99.90
17170;DHT22;8700;48.222;16.342;2022-10-19T13:56:32;20.70;99.90
17170;DHT22;8700;48.222;16.342;2022-10-19T14:00:12;20.50;99.90
17170;DHT22;8700;48.222;16.342;2022-10-19T14:03:58;20.30;99.90
17170;DHT22;8700;48.222;16.342;2022-10-19T14:07:27;20.30;99.90
17170;DHT22;8700;48.222;16.342;2022-10-19T14:10:56;20.10;99.90
17170;DHT22;8700;48.222;16.342;2022-10-19T14:14:21;19.80;99.90
17170;DHT22;8700;48.222;16.342;2022-10-19T14:17:42;19.70;99.90
17170;DHT22;8700;48.222;16.342;2022-10-19T14:21:08;19.60;99.90
17170;DHT22;8700;48.222;16.342;2022-10-19T14:24:31;19.60;99.90
17170;DHT22;8700;48.222;16.342;2022-10-19T14:27:58;19.50;99.90
17170;DHT22;8700;48.222;16.342;2022-10-19T14:31:22;19.20;99.90
17170;DHT22;8700;48.222;16.342;2022-10-19T14:34:46;18.90;99.90
17170;DHT22;8700;48.222;16.342;2022-10-19T14:38:18;18.60;99.90
17170;DHT22;8700;48.222;16.342;2022-10-19T14:41:40;18.40;99.90
17170;DHT22;8700;48.222;16.342;2022-10-19T14:45:03;18.30;99.90
17170;DHT22;8700;48.222;16.342;2022-10-19T14:48:26;18.10;99.90
17170;DHT22;8700;48.222;16.342;2022-10-19T14:51:49;18.00;99.90
17170;DHT22;8700;48.222;16.342;2022-10-19T14:55:17;17.90;99.90
17170;DHT22;8700;48.222;16.342;2022-10-19T14:58:40;17.80;99.90
17170;DHT22;8700;48.222;16.342;2022-10-19T15:02:14;17.70;99.90
17170;DHT22;8700;48.222;16.342;2022-10-19T15:05:39;17.60;99.90
17170;DHT22;8700;48.222;16.342;2022-10-19T15:09:06;17.60;99.90
17170;DHT22;8700;48.222;16.342;2022-10-19T15:12:34;17.40;99.90
17170;DHT22;8700;48.222;16.342;2022-10-19T15:15:56;17.40;99.90
17170;DHT22;8700;48.222;16.342;2022-10-19T15:19:22;17.30;99.90
17170;DHT22;8700;48.222;16.342;2022-10-19T15:22:45;17.10;99.90
17170;DHT22;8700;48.222;16.342;2022-10-19T15:26:17;17.20;99.90
17170;DHT22;8700;48.222;16.342;2022-10-19T15:29:53;17.20;99.90
17170;DHT22;8700;48.222;16.342;2022-10-19T15:33:14;17.00;99.90
17170;DHT22;8700;48.222;16.342;2022-10-19T15:36:36;16.90;99.90
17170;DHT22;8700;48.222;16.342;2022-10-19T15:39:58;16.70;99.90
17170;DHT22;8700;48.222;16.342;2022-10-19T15:47:20;16.50;99.90
17170;DHT22;8700;48.222;16.342;2022-10-19T15:50:44;16.40;99.90
17170;DHT22;8700;48.222;16.342;2022-10-19T15:54:07;16.20;99.90
17170;DHT22;8700;48.222;16.342;2022-10-19T15:57:31;16.20;99.90
17170;DHT22;8700;48.222;16.342;2022-10-19T16:00:53;16.00;99.90
17170;DHT22;8700;48.222;16.342;2022-10-19T16:04:16;16.00;99.90
17170;DHT22;8700;48.222;16.342;2022-10-19T16:07:39;15.80;99.90
17170;DHT22;8700;48.222;16.342;2022-10-19T16:11:01;15.80;99.90
17170;DHT22;8700;48.222;16.342;2022-10-19T16:14:23;15.70;99.90
17170;DHT22;8700;48.222;16.342;2022-10-19T16:17:48;15.60;99.90
17170;DHT22;8700;48.222;16.342;2022-10-19T16:21:11;15.60;99.90
17170;DHT22;8700;48.222;16.342;2022-10-19T16:24:37;15.50;99.90
17170;DHT22;8700;48.222;16.342;2022-10-19T16:27:58;15.50;99.90
17170;DHT22;8700;48.222;16.342;2022-10-19T16:31:21;15.40;99.90
17170;DHT22;8700;48.222;16.342;2022-10-19T16:34:42;15.30;99.90
17170;DHT22;8700;48.222;16.342;2022-10-19T16:38:05;15.20;99.90
17170;DHT22;8700;48.222;16.342;2022-10-19T16:41:27;15.20;99.90
17170;DHT22;8700;48.222;16.342;2022-10-19T16:44:49;15.00;99.90
17170;DHT22;8700;48.222;16.342;2022-10-19T16:48:11;15.00;99.90
17170;DHT22;8700;48.222;16.342;2022-10-19T16:51:36;14.90;99.90
17170;DHT22;8700;48.222;16.342;2022-10-19T16:54:59;14.80;99.90
17170;DHT22;8700;48.222;16.342;2022-10-19T16:58:21;14.70;99.90
17170;DHT22;8700;48.222;16.342;2022-10-19T17:01:44;14.80;99.90
17170;DHT22;8700;48.222;16.342;2022-10-19T17:05:06;14.60;99.90
17170;DHT22;8700;48.222;16.342;2022-10-19T17:08:29;14.50;99.90
17170;DHT22;8700;48.222;16.342;2022-10-19T17:11:52;14.40;99.90
17170;DHT22;8700;48.222;16.342;2022-10-19T17:15:14;14.40;99.90
17170;DHT22;8700;48.222;16.342;2022-10-19T17:18:36;14.40;99.90
17170;DHT22;8700;48.222;16.342;2022-10-19T17:21:57;14.30;99.90
17170;DHT22;8700;48.222;16.342;2022-10-19T17:25:22;14.30;99.90
17170;DHT22;8700;48.222;16.342;2022-10-19T17:28:45;14.20;99.90
17170;DHT22;8700;48.222;16.342;2022-10-19T17:32:08;14.20;99.90
17170;DHT22;8700;48.222;16.342;2022-10-19T17:35:29;14.20;99.90
17170;DHT22;8700;48.222;16.342;2022-10-19T17:38:52;14.10;99.90
17170;DHT22;8700;48.222;16.342;2022-10-19T17:42:14;14.10;99.90
17170;DHT22;8700;48.222;16.342;2022-10-19T17:45:37;14.10;99.90
17170;DHT22;8700;48.222;16.342;2022-10-19T17:48:59;14.00;99.90
17170;DHT22;8700;48.222;16.342;2022-10-19T17:52:20;14.10;99.90
17170;DHT22;8700;48.222;16.342;2022-10-19T17:55:42;14.10;99.90
17170;DHT22;8700;48.222;16.342;2022-10-19T17:59:04;14.10;99.90
17170;DHT22;8700;48.222;16.342;2022-10-19T18:02:28;14.10;99.90
17170;DHT22;8700;48.222;16.342;2022-10-19T18:05:57;14.10;99.90
17170;DHT22;8700;48.222;16.342;2022-10-19T18:09:19;14.10;99.90
17170;DHT22;8700;48.222;16.342;2022-10-19T18:12:40;14.10;99.90
17170;DHT22;8700;48.222;16.342;2022-10-19T18:16:04;14.00;99.90
17170;DHT22;8700;48.222;16.342;2022-10-19T18:19:27;14.10;99.90
17170;DHT22;8700;48.222;16.342;2022-10-19T18:22:49;14.20;99.90
17170;DHT22;8700;48.222;16.342;2022-10-19T18:26:13;14.20;99.90
17170;DHT22;8700;48.222;16.342;2022-10-19T18:29:35;14.20;99.90
17170;DHT22;8700;48.222;16.342;2022-10-19T18:32:58;14.20;99.90
17170;DHT22;8700;48.222;16.342;2022-10-19T18:36:21;14.10;99.90
17170;DHT22;8700;48.222;16.342;2022-10-19T18:39:43;14.20;99.90
17170;DHT22;8700;48.222;16.342;2022-10-19T18:43:05;14.20;99.90
17170;DHT22;8700;48.222;16.342;2022-10-19T18:46:27;14.30;99.90
17170;DHT22;8700;48.222;16.342;2022-10-19T18:49:49;14.30;99.90
17170;DHT22;8700;48.222;16.342;2022-10-19T18:53:12;14.10;99.90
17170;DHT22;8700;48.222;16.342;2022-10-19T18:56:34;14.20;99.90
17170;DHT22;8700;48.222;16.342;2022-10-19T18:59:56;14.20;99.90
17170;DHT22;8700;48.222;16.342;2022-10-19T19:03:18;14.20;99.90
17170;DHT22;8700;48.222;16.342;2022-10-19T19:06:39;14.00;99.90
17170;DHT22;8700;48.222;16.342;2022-10-19T19:10:02;13.90;99.90
17170;DHT22;8700;48.222;16.342;2022-10-19T19:13:24;13.80;99.90
17170;DHT22;8700;48.222;16.342;2022-10-19T19:16:49;13.80;99.90
17170;DHT22;8700;48.222;16.342;2022-10-19T19:20:10;13.80;99.90
17170;DHT22;8700;48.222;16.342;2022-10-19T19:23:32;13.70;99.90
17170;DHT22;8700;48.222;16.342;2022-10-19T19:26:55;13.70;99.90
17170;DHT22;8700;48.222;16.342;2022-10-19T19:30:17;13.70;99.90
17170;DHT22;8700;48.222;16.342;2022-10-19T19:33:39;13.50;99.90
17170;DHT22;8700;48.222;16.342;2022-10-19T19:37:00;13.40;99.90
17170;DHT22;8700;48.222;16.342;2022-10-19T19:40:24;13.40;99.90
17170;DHT22;8700;48.222;16.342;2022-10-19T19:43:47;13.30;99.90
17170;DHT22;8700;48.222;16.342;2022-10-19T19:47:14;13.30;99.90
17170;DHT22;8700;48.222;16.342;2022-10-19T19:50:38;13.20;99.90
17170;DHT22;8700;48.222;16.342;2022-10-19T19:53:59;13.10;99.90
17170;DHT22;8700;48.222;16.342;2022-10-19T19:57:21;13.10;99.90
17170;DHT22;8700;48.222;16.342;2022-10-19T20:00:44;13.20;99.90
17170;DHT22;8700;48.222;16.342;2022-10-19T20:04:06;13.20;99.90
17170;DHT22;8700;48.222;16.342;2022-10-19T20:07:28;13.20;99.90
17170;DHT22;8700;48.222;16.342;2022-10-19T20:10:49;13.10;99.90
17170;DHT22;8700;48.222;16.342;2022-10-19T20:14:13;13.10;99.90
17170;DHT22;8700;48.222;16.342;2022-10-19T20:17:36;13.10;99.90
17170;DHT22;8700;48.222;16.342;2022-10-19T20:21:00;12.90;99.90
17170;DHT22;8700;48.222;16.342;2022-10-19T20:24:21;12.90;99.90
17170;DHT22;8700;48.222;16.342;2022-10-19T20:27:43;12.90;99.90
17170;DHT22;8700;48.222;16.342;2022-10-19T20:31:06;12.90;99.90
17170;DHT22;8700;48.222;16.342;2022-10-19T20:34:30;12.90;99.90
17170;DHT22;8700;48.222;16.342;2022-10-19T20:37:51;12.90;99.90
17170;DHT22;8700;48.222;16.342;2022-10-19T20:41:16;12.90;99.90
17170;DHT22;8700;48.222;16.342;2022-10-19T20:44:38;12.90;99.90
17170;DHT22;8700;48.222;16.342;2022-10-19T20:48:02;12.70;99.90
17170;DHT22;8700;48.222;16.342;2022-10-19T20:51:26;12.70;99.90
17170;DHT22;8700;48.222;16.342;2022-10-19T20:54:48;12.70;99.90
17170;DHT22;8700;48.222;16.342;2022-10-19T20:58:10;12.70;99.90
17170;DHT22;8700;48.222;16.342;2022-10-19T21:01:33;12.70;99.90
17170;DHT22;8700;48.222;16.342;2022-10-19T21:04:55;12.70;99.90
17170;DHT22;8700;48.222;16.342;2022-10-19T21:08:18;12.60;99.90
17170;DHT22;8700;48.222;16.342;2022-10-19T21:11:40;12.60;99.90
17170;DHT22;8700;48.222;16.342;2022-10-19T21:15:02;12.60;99.90
17170;DHT22;8700;48.222;16.342;2022-10-19T21:18:24;12.60;99.90
17170;DHT22;8700;48.222;16.342;2022-10-19T21:21:47;12.60;99.90
17170;DHT22;8700;48.222;16.342;2022-10-19T21:25:10;12.50;99.90
17170;DHT22;8700;48.222;16.342;2022-10-19T21:28:32;12.50;99.90
17170;DHT22;8700;48.222;16.342;2022-10-19T21:31:53;12.40;99.90
17170;DHT22;8700;48.222;16.342;2022-10-19T21:35:15;12.40;99.90
17170;DHT22;8700;48.222;16.342;2022-10-19T21:38:37;12.40;99.90
17170;DHT22;8700;48.222;16.342;2022-10-19T21:42:00;12.40;99.90
17170;DHT22;8700;48.222;16.342;2022-10-19T21:45:21;12.40;99.90
17170;DHT22;8700;48.222;16.342;2022-10-19T21:48:43;12.40;99.90
17170;DHT22;8700;48.222;16.342;2022-10-19T21:52:04;12.40;99.90